Time;durP1;ratioP1;P1;durP2;ratioP2;P2;SDS_P1;SDS_P2;PMS_P1;PMS_P2;Temp;Humidity;BMP_temperature;BMP_pressure;BME280_temperature;BME280_humidity;BME280_pressure;Samples;Min_cycle;Max_cycle;Signal;HPM_P1;HPM_P2
2022/07/06 00:00:45;;;;;;;0.95;0.88;;;;;;;13.92;77.94;101583.09;4936706;29;20069;-76
2022/07/06 00:03:11;;;;;;;1.27;0.90;;;;;;;13.96;77.95;101595.25;4942437;29;20034;-75
2022/07/06 00:05:36;;;;;;;2.10;0.70;;;;;;;13.95;78.14;101594.41;4931366;29;20043;-76
2022/07/06 00:08:01;;;;;;;1.38;1.02;;;;;;;13.89;77.93;101600.13;4938018;29;20364;-76
2022/07/06 00:10:27;;;;;;;1.35;1.08;;;;;;;13.82;78.43;101599.50;4905660;29;20406;-77
2022/07/06 00:12:52;;;;;;;0.70;0.70;;;;;;;13.72;78.57;101609.28;4906414;29;20399;-75
2022/07/06 00:15:18;;;;;;;0.90;0.68;;;;;;;13.66;79.18;101613.06;4939691;29;20024;-75
2022/07/06 00:17:43;;;;;;;2.50;0.90;;;;;;;13.70;79.05;101616.97;4906536;29;20118;-76
2022/07/06 00:20:09;;;;;;;1.50;1.00;;;;;;;13.68;79.26;101610.91;4889860;29;20087;-77
2022/07/06 00:22:35;;;;;;;1.00;0.73;;;;;;;13.70;79.11;101618.91;4906591;29;20040;-75
2022/07/06 00:25:00;;;;;;;3.00;1.25;;;;;;;13.76;79.25;101607.69;4938369;29;20042;-75
2022/07/06 00:27:26;;;;;;;0.85;0.85;;;;;;;13.83;78.91;101599.25;4938152;29;20498;-75
2022/07/06 00:29:54;;;;;;;0.77;0.73;;;;;;;13.82;78.89;101605.00;4925515;29;20032;-74
2022/07/06 00:32:19;;;;;;;1.17;0.90;;;;;;;13.85;79.08;101609.97;4906100;29;20442;-75
2022/07/06 00:34:45;;;;;;;0.68;0.60;;;;;;;13.87;78.50;101596.78;4922604;29;20032;-74
2022/07/06 00:37:15;;;;;;;0.80;0.75;;;;;;;13.90;77.91;101596.25;4921168;29;20028;-75
2022/07/06 00:39:43;;;;;;;0.93;0.77;;;;;;;13.87;77.92;101597.63;4909299;29;20048;-75
2022/07/06 00:42:08;;;;;;;0.98;0.77;;;;;;;13.93;78.36;101617.75;4906139;29;20035;-76
2022/07/06 00:44:34;;;;;;;1.02;0.90;;;;;;;13.79;78.53;101600.84;4930108;29;20394;-77
2022/07/06 00:46:59;;;;;;;1.10;0.70;;;;;;;13.91;78.49;101608.94;4907381;29;20036;-75
2022/07/06 00:52:10;;;;;;;0.90;0.90;;;;;;;13.84;78.15;101602.81;4940775;29;20042;-75
2022/07/06 00:54:36;;;;;;;2.80;1.13;;;;;;;13.87;78.29;101605.88;4916576;29;20039;-76
2022/07/06 00:57:02;;;;;;;2.63;0.85;;;;;;;14.00;78.27;101601.03;4892002;29;20036;-75
2022/07/06 00:59:28;;;;;;;3.80;1.00;;;;;;;14.06;77.77;101609.09;4903721;29;20039;-76
2022/07/06 01:01:53;;;;;;;1.10;0.80;;;;;;;14.08;77.06;101620.66;4920812;29;20031;-76
2022/07/06 01:04:19;;;;;;;1.13;0.80;;;;;;;13.98;77.72;101604.06;4906878;29;20459;-74
2022/07/06 01:06:47;;;;;;;1.33;0.90;;;;;;;14.01;77.54;101622.78;4917029;29;20032;-76
2022/07/06 01:09:13;;;;;;;1.30;1.00;;;;;;;13.92;77.98;101621.59;4904996;29;20062;-75
2022/07/06 01:11:39;;;;;;;1.35;0.88;;;;;;;13.86;78.19;101614.41;4899640;29;20028;-76
2022/07/06 01:14:05;;;;;;;1.20;0.95;;;;;;;13.84;78.33;101602.81;4902041;29;20024;-75
2022/07/06 01:16:31;;;;;;;4.78;0.85;;;;;;;13.74;78.79;101603.53;4919208;29;20047;-75
2022/07/06 01:18:57;;;;;;;2.17;1.00;;;;;;;13.62;78.79;101609.16;4922179;29;20032;-76
2022/07/06 01:21:22;;;;;;;1.38;0.90;;;;;;;13.53;79.54;101607.97;4891144;29;20552;-77
2022/07/06 01:23:48;;;;;;;2.35;0.90;;;;;;;13.38;78.92;101598.47;4902420;29;20023;-77
2022/07/06 01:26:17;;;;;;;0.90;0.77;;;;;;;13.35;79.64;101601.72;4937363;29;20032;-78
2022/07/06 01:28:43;;;;;;;0.80;0.80;;;;;;;13.28;79.94;101603.81;4906542;29;20375;-78
2022/07/06 01:31:25;;;;;;;0.70;0.70;;;;;;;13.22;80.12;101596.59;4904628;29;20036;-77
2022/07/06 01:33:54;;;;;;;1.42;0.93;;;;;;;13.13;79.81;101595.34;4900466;29;20475;-77
2022/07/06 01:36:20;;;;;;;1.15;0.90;;;;;;;13.05;80.45;101596.63;4923833;29;20051;-77
2022/07/06 01:38:48;;;;;;;0.98;0.82;;;;;;;13.05;80.75;101607.63;4930122;29;20138;-77
2022/07/06 01:41:13;;;;;;;1.10;1.00;;;;;;;12.98;80.48;101607.81;4933133;29;20046;-77
2022/07/06 01:43:39;;;;;;;1.42;1.13;;;;;;;12.96;80.95;101609.97;4939139;29;20032;-77
2022/07/06 01:46:05;;;;;;;0.98;0.77;;;;;;;12.89;80.75;101603.81;4904444;29;20093;-77
2022/07/06 01:48:30;;;;;;;2.10;1.08;;;;;;;12.85;81.16;101602.66;4905493;29;20050;-77
2022/07/06 01:50:56;;;;;;;1.05;0.95;;;;;;;12.84;81.20;101601.84;4905955;29;20091;-76
2022/07/06 01:53:22;;;;;;;1.08;0.98;;;;;;;12.78;81.40;101604.78;4894192;29;20055;-74
2022/07/06 01:55:47;;;;;;;2.38;0.90;;;;;;;12.64;81.30;101591.38;4917516;29;20052;-75
2022/07/06 01:58:12;;;;;;;1.00;0.90;;;;;;;12.61;81.90;101597.38;4921785;29;20055;-76
2022/07/06 02:00:38;;;;;;;0.98;0.90;;;;;;;12.57;81.93;101586.09;4927038;29;20387;-76
2022/07/06 02:03:03;;;;;;;1.05;0.73;;;;;;;12.58;81.59;101598.72;4943079;29;20027;-75
2022/07/06 02:05:29;;;;;;;3.25;1.00;;;;;;;12.55;82.32;101598.38;4919327;29;20051;-77
2022/07/06 02:07:54;;;;;;;1.00;0.90;;;;;;;12.52;82.45;101590.66;4932290;29;20027;-76
2022/07/06 02:10:20;;;;;;;2.35;1.20;;;;;;;12.52;82.07;101596.16;4931687;29;20035;-76
2022/07/06 02:12:45;;;;;;;1.42;0.93;;;;;;;12.53;82.43;101600.56;4918200;29;20421;-75
2022/07/06 02:15:11;;;;;;;1.85;1.10;;;;;;;12.57;82.41;101602.56;4906007;29;20020;-76
2022/07/06 02:17:36;;;;;;;2.45;1.08;;;;;;;12.59;82.37;101599.56;4922202;29;20036;-76
2022/07/06 02:20:03;;;;;;;1.60;1.10;;;;;;;12.66;82.33;101605.69;4936995;29;20054;-77
2022/07/06 02:22:28;;;;;;;1.80;1.20;;;;;;;12.63;82.63;101597.97;4911577;29;20035;-74
2022/07/06 02:24:54;;;;;;;1.58;1.30;;;;;;;12.58;82.58;101597.88;4907489;29;20375;-76
2022/07/06 02:27:19;;;;;;;3.33;1.48;;;;;;;12.67;82.42;101609.28;4908076;29;20032;-76
2022/07/06 02:29:45;;;;;;;3.20;1.70;;;;;;;12.66;82.78;101605.69;4943798;29;20036;-76
2022/07/06 02:32:10;;;;;;;1.02;0.93;;;;;;;12.68;82.74;101603.53;4924436;29;20067;-76
2022/07/06 02:34:35;;;;;;;1.33;1.23;;;;;;;12.75;82.71;101609.69;4909671;29;20024;-76
2022/07/06 02:37:01;;;;;;;1.52;1.30;;;;;;;12.74;82.55;101602.50;4935818;29;20390;-75
2022/07/06 02:39:26;;;;;;;1.00;0.90;;;;;;;12.78;82.40;101613.00;4911326;29;20027;-76
2022/07/06 02:41:52;;;;;;;2.38;1.17;;;;;;;12.70;82.33;101612.34;4908680;29;20126;-76
2022/07/06 02:44:17;;;;;;;1.55;1.10;;;;;;;12.70;82.65;101606.03;4904390;29;20020;-75
2022/07/06 02:46:43;;;;;;;5.40;1.20;;;;;;;12.62;82.64;101615.50;4925986;29;20035;-76
2022/07/06 02:49:08;;;;;;;1.17;1.08;;;;;;;12.57;82.95;101607.19;4912190;29;20039;-76
2022/07/06 02:51:33;;;;;;;1.42;1.20;;;;;;;12.54;82.78;101613.19;4915131;29;20027;-76
2022/07/06 02:53:59;;;;;;;1.90;1.02;;;;;;;12.48;82.99;101605.97;4925099;29;20028;-75
2022/07/06 02:56:24;;;;;;;2.30;1.42;;;;;;;12.47;83.31;101607.03;4923521;29;20035;-75
2022/07/06 02:58:56;;;;;;;4.07;0.90;;;;;;;12.43;83.27;101614.13;4928602;29;20040;-74
2022/07/06 03:01:23;;;;;;;1.27;0.88;;;;;;;12.39;83.23;101622.81;4906418;29;20024;-76
2022/07/06 03:03:49;;;;;;;1.58;0.85;;;;;;;12.37;83.13;101618.69;4938718;29;20073;-74
2022/07/06 03:06:15;;;;;;;1.55;0.90;;;;;;;12.35;83.41;101624.44;4928070;29;20124;-74
2022/07/06 03:08:40;;;;;;;1.08;0.98;;;;;;;12.33;83.41;101628.50;4909188;29;20097;-75
2022/07/06 03:11:06;;;;;;;1.70;1.00;;;;;;;12.30;83.51;101613.34;4908335;29;20040;-75
2022/07/06 03:13:31;;;;;;;3.22;1.10;;;;;;;12.42;83.51;101628.91;4921963;29;20112;-75
2022/07/06 03:15:57;;;;;;;5.57;1.25;;;;;;;12.43;83.39;101625.09;4907994;29;20028;-74
2022/07/06 03:18:23;;;;;;;1.75;1.17;;;;;;;12.43;83.74;101616.88;4906649;29;20040;-76
2022/07/06 03:20:48;;;;;;;1.90;1.10;;;;;;;12.45;83.47;101610.03;4940385;29;20126;-75
2022/07/06 03:23:14;;;;;;;1.33;1.02;;;;;;;12.49;83.30;101610.38;4886648;29;21044;-74
2022/07/06 03:25:39;;;;;;;1.55;1.20;;;;;;;12.52;82.87;101620.84;4929981;29;20028;-76
2022/07/06 03:28:05;;;;;;;2.70;1.30;;;;;;;12.52;83.25;101620.84;4937860;29;20032;-76
2022/07/06 03:30:30;;;;;;;1.83;1.40;;;;;;;12.49;83.43;101610.38;4917962;29;20032;-76
2022/07/06 03:32:55;;;;;;;1.38;1.20;;;;;;;12.44;83.63;101610.28;4895946;29;20479;-75
2022/07/06 03:35:21;;;;;;;2.92;1.30;;;;;;;12.42;83.82;101604.22;4899201;29;20036;-75
2022/07/06 03:37:46;;;;;;;2.05;1.35;;;;;;;12.38;83.46;101601.97;4936529;29;20427;-75
2022/07/06 03:40:12;;;;;;;1.90;1.10;;;;;;;12.34;83.93;101595.31;4920862;29;20047;-76
2022/07/06 03:42:37;;;;;;;1.65;1.08;;;;;;;12.35;83.90;101612.59;4918099;29;20383;-75
2022/07/06 03:45:04;;;;;;;1.75;1.13;;;;;;;12.29;83.86;101617.16;4943542;29;20023;-76
2022/07/06 03:47:30;;;;;;;3.00;1.48;;;;;;;12.22;83.84;101611.00;4931135;29;20028;-75
2022/07/06 03:49:55;;;;;;;1.30;1.10;;;;;;;12.21;83.84;101620.34;4908507;29;20099;-76
2022/07/06 03:52:21;;;;;;;2.90;1.40;;;;;;;12.19;84.30;101619.72;4913537;29;20118;-75
2022/07/06 03:54:46;;;;;;;2.35;1.27;;;;;;;12.14;84.59;101625.16;4907951;29;20024;-76
2022/07/06 03:57:13;;;;;;;1.08;0.98;;;;;;;12.13;84.31;101628.97;4892244;29;20149;-74
2022/07/06 03:59:41;;;;;;;1.67;1.10;;;;;;;12.08;84.50;101615.19;4908133;29;20028;-75
2022/07/06 04:02:07;;;;;;;1.73;1.50;;;;;;;12.08;84.82;101616.00;4886301;29;20119;-75
2022/07/06 04:04:34;;;;;;;2.03;1.40;;;;;;;12.04;84.76;101593.72;4907518;29;20128;-75
2022/07/06 04:06:59;;;;;;;1.10;0.90;;;;;;;12.07;84.56;101608.03;4925074;29;20031;-75
2022/07/06 04:09:25;;;;;;;0.85;0.80;;;;;;;12.02;84.96;101606.84;4909210;29;20052;-74
2022/07/06 04:11:50;;;;;;;1.45;1.10;;;;;;;11.99;84.93;101606.53;4940086;29;20024;-75
2022/07/06 04:14:16;;;;;;;1.00;0.90;;;;;;;12.00;84.96;101602.69;4908123;29;20028;-75
2022/07/06 04:16:41;;;;;;;1.48;0.98;;;;;;;12.02;84.57;101600.53;4910886;29;20028;-77
2022/07/06 04:19:09;;;;;;;0.85;0.80;;;;;;;12.07;84.49;101591.56;4903675;29;20035;-77
2022/07/06 04:21:34;;;;;;;1.30;1.00;;;;;;;12.11;84.38;101599.03;4909602;29;20122;-76
2022/07/06 04:24:00;;;;;;;1.73;1.30;;;;;;;12.14;84.42;101584.03;4908417;29;20047;-78
2022/07/06 04:26:25;;;;;;;1.35;1.15;;;;;;;12.25;84.08;101583.13;4907417;29;20031;-77
2022/07/06 04:28:51;;;;;;;3.47;1.50;;;;;;;12.33;83.97;101587.34;4925119;29;20036;-77
2022/07/06 04:31:16;;;;;;;1.17;1.08;;;;;;;12.36;84.04;101597.81;4923188;29;20027;-76
2022/07/06 04:33:42;;;;;;;3.38;1.25;;;;;;;12.37;83.97;101603.06;4924858;29;20024;-75
2022/07/06 04:36:09;;;;;;;1.13;1.02;;;;;;;12.39;83.47;101606.38;4912566;29;20070;-76
2022/07/06 04:38:34;;;;;;;1.02;0.80;;;;;;;12.44;83.60;101607.53;4934584;29;20032;-75
2022/07/06 04:41:00;;;;;;;1.95;1.02;;;;;;;12.51;83.56;101608.19;4920114;29;20530;-77
2022/07/06 04:43:25;;;;;;;2.33;1.10;;;;;;;12.60;83.45;101612.19;4922875;29;20489;-75
2022/07/06 04:45:51;;;;;;;1.33;1.00;;;;;;;12.70;83.13;101620.59;4925846;29;20059;-75
2022/07/06 04:48:16;;;;;;;1.88;1.15;;;;;;;12.75;82.80;101615.16;4918272;29;20035;-76
2022/07/06 04:50:42;;;;;;;0.90;0.80;;;;;;;12.93;82.76;101632.44;4904266;29;20027;-76
2022/07/06 04:53:08;;;;;;;1.98;0.93;;;;;;;13.03;82.20;101624.34;4906962;29;20193;-78
2022/07/06 04:55:33;;;;;;;1.50;0.85;;;;;;;13.13;81.79;101625.56;4911239;29;20571;-76
2022/07/06 04:57:59;;;;;;;1.02;0.93;;;;;;;13.22;81.70;101633.13;4909758;29;20035;-76
2022/07/06 05:00:25;;;;;;;0.75;0.70;;;;;;;13.28;81.10;101620.28;4934409;29;20379;-76
2022/07/06 05:02:50;;;;;;;1.13;0.82;;;;;;;13.30;81.23;101614.53;4935912;29;20091;-76
2022/07/06 05:05:15;;;;;;;1.27;0.80;;;;;;;13.37;80.98;101616.03;4910834;29;20032;-76
2022/07/06 05:07:41;;;;;;;1.05;0.63;;;;;;;13.39;80.77;101613.03;4890743;29;20035;-76
2022/07/06 05:10:11;;;;;;;0.77;0.77;;;;;;;13.58;80.45;101616.25;4911420;29;20522;-76
2022/07/06 05:12:37;;;;;;;0.88;0.77;;;;;;;13.75;80.22;101621.69;4939301;29;20023;-76
2022/07/06 05:15:04;;;;;;;1.05;0.95;;;;;;;13.82;79.79;101596.75;4922737;29;20081;-75
2022/07/06 05:17:29;;;;;;;1.35;0.80;;;;;;;13.94;79.25;101592.75;4919318;29;20051;-75
2022/07/06 05:19:55;;;;;;;1.00;0.90;;;;;;;14.07;79.11;101613.47;4919054;29;20463;-76
2022/07/06 05:22:20;;;;;;;0.95;0.68;;;;;;;14.12;79.02;101616.31;4932787;29;20054;-76
2022/07/06 05:24:46;;;;;;;1.38;0.93;;;;;;;14.15;78.69;101614.97;4899567;29;20027;-76
2022/07/06 05:27:11;;;;;;;1.10;0.75;;;;;;;14.08;78.30;101606.09;4915582;29;20136;-76
2022/07/06 05:29:37;;;;;;;0.68;0.60;;;;;;;14.09;78.82;101626.97;4905279;29;20023;-75
2022/07/06 05:32:03;;;;;;;0.73;0.52;;;;;;;14.06;78.96;101622.84;4905555;29;20032;-76
2022/07/06 05:34:28;;;;;;;0.50;0.50;;;;;;;14.02;78.60;101632.69;4887270;29;20056;-76
2022/07/06 05:36:54;;;;;;;0.93;0.73;;;;;;;13.96;78.52;101633.75;4916040;29;20043;-75
2022/07/06 05:39:21;;;;;;;0.70;0.70;;;;;;;13.91;78.71;101626.25;4900398;29;20034;-76
2022/07/06 05:41:47;;;;;;;1.25;0.85;;;;;;;13.93;79.03;101639.75;4899381;29;20035;-76
2022/07/06 05:44:16;;;;;;;1.92;1.10;;;;;;;13.94;78.58;101635.91;4922610;29;20062;-77
2022/07/06 05:46:43;;;;;;;2.13;1.00;;;;;;;14.11;77.66;101630.31;4940161;29;20043;-78
2022/07/06 05:51:52;;;;;;;1.70;0.98;;;;;;;14.22;76.99;101644.97;4932341;29;20043;-74
2022/07/06 05:54:18;;;;;;;0.77;0.77;;;;;;;14.10;77.33;101643.22;4907074;29;20040;-74
2022/07/06 05:56:43;;;;;;;1.40;0.88;;;;;;;14.07;77.52;101640.16;4904700;29;20032;-76
2022/07/06 05:59:08;;;;;;;1.02;0.75;;;;;;;14.11;77.59;101636.63;4934763;29;20032;-75
2022/07/06 06:01:34;;;;;;;1.63;0.93;;;;;;;14.25;77.56;101648.06;4907708;29;20035;-78
2022/07/06 06:03:59;;;;;;;0.88;0.82;;;;;;;14.56;76.77;101659.31;4918852;29;20395;-77
2022/07/06 06:06:26;;;;;;;4.38;1.02;;;;;;;14.85;75.99;101656.28;4906181;29;20101;-76
2022/07/06 06:08:51;;;;;;;3.60;1.00;;;;;;;15.16;74.68;101653.72;4924420;29;20036;-77
2022/07/06 06:11:17;;;;;;;3.97;0.98;;;;;;;15.35;74.25;101654.09;4920840;29;20047;-75
2022/07/06 06:13:42;;;;;;;1.58;1.00;;;;;;;15.37;73.64;101657.38;4928109;29;20059;-78
2022/07/06 06:16:08;;;;;;;2.30;0.88;;;;;;;15.34;73.54;101646.91;4918296;29;20063;-74
2022/07/06 06:18:33;;;;;;;3.42;1.00;;;;;;;15.43;73.80;101661.00;4920901;29;20032;-74
2022/07/06 06:20:59;;;;;;;1.10;0.93;;;;;;;15.54;72.71;101655.25;4918296;29;20044;-75
2022/07/06 06:23:24;;;;;;;2.17;0.93;;;;;;;15.65;72.76;101652.53;4918226;29;20455;-75
2022/07/06 06:25:50;;;;;;;1.60;0.93;;;;;;;15.77;72.60;101664.19;4922031;29;20056;-76
2022/07/06 06:28:15;;;;;;;3.22;1.00;;;;;;;15.90;72.58;101659.25;4937412;29;20036;-75
2022/07/06 06:30:41;;;;;;;2.55;1.05;;;;;;;16.01;72.29;101660.97;4920625;29;20032;-75
2022/07/06 06:33:18;;;;;;;0.95;0.90;;;;;;;16.15;71.92;101659.34;4921763;29;20027;-76
2022/07/06 06:35:49;;;;;;;0.90;0.80;;;;;;;16.17;71.74;101654.34;4939391;29;20038;-76
2022/07/06 06:38:15;;;;;;;1.02;0.80;;;;;;;16.13;72.26;101657.94;4923094;29;20043;-77
2022/07/06 06:40:41;;;;;;;1.83;1.00;;;;;;;16.07;72.50;101659.84;4917536;29;20039;-78
2022/07/06 06:43:07;;;;;;;1.00;0.90;;;;;;;15.97;73.00;101654.31;4907917;29;20496;-77
2022/07/06 06:45:32;;;;;;;0.77;0.77;;;;;;;15.95;73.32;101659.28;4899068;29;20035;-76
2022/07/06 06:47:58;;;;;;;0.70;0.70;;;;;;;15.99;73.39;101654.88;4936436;29;20382;-77
2022/07/06 06:50:24;;;;;;;0.90;0.65;;;;;;;16.08;73.42;101650.50;4941519;29;20020;-77
2022/07/06 06:52:50;;;;;;;1.73;1.00;;;;;;;16.13;73.34;101631.16;4940515;29;20079;-75
2022/07/06 06:55:16;;;;;;;0.80;0.80;;;;;;;16.37;73.29;101639.75;4942073;29;20046;-75
2022/07/06 06:57:41;;;;;;;2.67;0.90;;;;;;;16.41;72.57;101631.72;4905883;29;20444;-76
2022/07/06 07:00:08;;;;;;;2.08;0.80;;;;;;;16.55;72.37;101649.41;4937652;29;20096;-76
2022/07/06 07:02:33;;;;;;;1.20;0.90;;;;;;;16.61;72.67;101649.41;4938538;29;20977;-77
2022/07/06 07:04:59;;;;;;;1.80;1.10;;;;;;;16.78;72.02;101658.25;4925666;29;20043;-77
2022/07/06 07:07:24;;;;;;;6.53;1.02;;;;;;;17.07;71.78;101665.97;4904090;29;20032;-76
2022/07/06 07:09:50;;;;;;;1.90;1.10;;;;;;;17.39;71.14;101656.44;4922064;29;20413;-74
2022/07/06 07:12:16;;;;;;;2.28;1.00;;;;;;;17.85;70.00;101659.00;4937641;29;20059;-77
2022/07/06 07:14:43;;;;;;;1.50;1.10;;;;;;;18.40;68.79;101666.41;4921992;29;20146;-75
2022/07/06 07:17:08;;;;;;;1.10;1.00;;;;;;;18.98;66.40;101666.50;4890446;29;20047;-75
2022/07/06 07:19:34;;;;;;;3.00;1.10;;;;;;;19.81;64.36;101666.38;4902839;29;20035;-77
2022/07/06 07:21:59;;;;;;;1.83;1.15;;;;;;;20.27;61.72;101673.22;4888963;29;20135;-76
2022/07/06 07:24:25;;;;;;;3.40;0.90;;;;;;;20.31;61.15;101659.53;4903026;29;20039;-75
2022/07/06 07:26:50;;;;;;;0.70;0.70;;;;;;;20.08;61.83;101655.72;4921518;29;20471;-75
2022/07/06 07:29:15;;;;;;;1.45;1.10;;;;;;;19.85;61.93;101663.84;4907097;29;20399;-76
2022/07/06 07:31:41;;;;;;;0.88;0.80;;;;;;;19.75;62.45;101663.94;4905537;29;20027;-75
2022/07/06 07:34:07;;;;;;;2.90;0.85;;;;;;;19.93;62.28;101671.50;4933103;29;20039;-76
2022/07/06 07:36:32;;;;;;;11.32;1.55;;;;;;;20.47;60.63;101671.22;4916257;29;20040;-75
2022/07/06 07:38:58;;;;;;;1.42;0.90;;;;;;;21.20;58.44;101674.41;4921414;29;20027;-75
2022/07/06 07:41:23;;;;;;;1.73;1.10;;;;;;;21.39;57.35;101675.16;4905721;29;20036;-76
2022/07/06 07:43:48;;;;;;;8.07;1.42;;;;;;;21.54;57.08;101687.13;4937441;29;20412;-75
2022/07/06 07:46:14;;;;;;;1.17;0.95;;;;;;;21.93;55.87;101681.00;4929440;29;20379;-76
2022/07/06 07:48:39;;;;;;;2.17;0.98;;;;;;;22.34;54.88;101686.75;4883316;29;20447;-75
2022/07/06 07:51:07;;;;;;;1.30;1.10;;;;;;;22.45;53.45;101675.03;4900785;29;20039;-76
2022/07/06 07:53:33;;;;;;;1.30;0.90;;;;;;;22.54;53.74;101677.91;4916673;29;20024;-76
2022/07/06 07:55:58;;;;;;;1.00;0.90;;;;;;;22.67;53.65;101681.75;4905076;29;20050;-76
2022/07/06 07:58:24;;;;;;;1.77;0.80;;;;;;;22.90;53.41;101673.38;4919660;29;20027;-76
2022/07/06 08:00:49;;;;;;;0.80;0.73;;;;;;;23.23;52.77;101671.09;4910394;29;20038;-76
2022/07/06 08:03:15;;;;;;;3.00;0.70;;;;;;;23.75;51.64;101676.00;4906821;29;20059;-76
2022/07/06 08:05:40;;;;;;;1.95;0.60;;;;;;;24.03;50.07;101676.56;4911749;29;20043;-75
2022/07/06 08:08:05;;;;;;;0.80;0.65;;;;;;;24.37;49.78;101676.88;4907600;29;20479;-75
2022/07/06 08:10:31;;;;;;;3.15;0.77;;;;;;;24.88;49.19;101678.00;4925799;29;20056;-75
2022/07/06 08:12:57;;;;;;;2.35;0.70;;;;;;;25.15;48.04;101667.50;4901333;29;20039;-76
2022/07/06 08:15:22;;;;;;;2.20;0.60;;;;;;;25.14;47.07;101667.84;4934137;29;20058;-76
2022/07/06 08:17:47;;;;;;;0.40;0.40;;;;;;;24.94;48.19;101658.22;4905012;29;20527;-76
2022/07/06 08:20:13;;;;;;;0.65;0.60;;;;;;;24.80;48.54;101659.25;4910863;29;20016;-78
2022/07/06 08:22:39;;;;;;;1.00;0.20;;;;;;;24.69;48.75;101642.00;4889516;29;20043;-76
2022/07/06 08:25:05;;;;;;;0.40;0.40;;;;;;;24.87;47.75;101648.38;4921740;29;20123;-77
2022/07/06 08:27:31;;;;;;;0.63;0.30;;;;;;;24.93;47.78;101640.63;4903773;29;20103;-75
2022/07/06 08:29:56;;;;;;;0.30;0.30;;;;;;;24.71;46.74;101644.47;4904606;29;20087;-76
2022/07/06 08:32:22;;;;;;;1.00;0.35;;;;;;;23.72;47.42;101647.91;4943700;29;20091;-76
2022/07/06 08:34:53;;;;;;;2.67;0.40;;;;;;;22.93;49.77;101644.84;4903944;29;20061;-80
2022/07/06 08:37:19;;;;;;;1.83;0.40;;;;;;;22.54;50.73;101643.63;4914410;29;20027;-80
2022/07/06 08:39:45;;;;;;;0.32;0.30;;;;;;;22.02;52.02;101622.59;4932230;29;20063;-80
2022/07/06 08:42:12;;;;;;;0.75;0.30;;;;;;;21.84;52.94;101634.69;4906996;29;20099;-78
2022/07/06 08:44:44;;;;;;;1.55;0.47;;;;;;;21.84;52.97;101618.00;4921839;29;20027;-80
2022/07/06 08:47:13;;;;;;;0.90;0.30;;;;;;;21.81;52.64;101613.88;4919319;29;20032;-79
2022/07/06 08:49:42;;;;;;;0.30;0.30;;;;;;;21.64;53.19;101611.78;4905314;29;20109;-79
2022/07/06 08:52:08;;;;;;;1.35;0.70;;;;;;;21.70;53.35;101615.22;4919334;29;20497;-80
2022/07/06 08:54:56;;;;;;;0.82;0.40;;;;;;;22.45;52.53;101622.09;4943534;29;20027;-80
2022/07/06 08:57:22;;;;;;;0.45;0.30;;;;;;;23.26;50.59;101611.88;4918005;29;20090;-81
2022/07/06 08:59:48;;;;;;;0.30;0.30;;;;;;;23.51;48.76;101615.84;4920310;29;20035;-78
2022/07/06 09:02:24;;;;;;;0.93;0.30;;;;;;;23.08;49.12;101613.72;4921896;29;20047;-78
2022/07/06 09:04:53;;;;;;;0.20;0.20;;;;;;;22.87;50.22;101618.22;4932619;29;20031;-78
2022/07/06 09:07:20;;;;;;;0.25;0.20;;;;;;;23.51;49.97;101621.44;4921175;29;20024;-79
2022/07/06 09:09:49;;;;;;;0.13;0.13;;;;;;;24.57;48.16;101594.28;4904569;29;20055;-79
2022/07/06 09:12:36;;;;;;;;;;;;;;;;;;;;;
2022/07/06 09:15:08;;;;;;;0.20;0.20;;;;;;;25.47;44.11;101600.84;4928319;29;20102;-79
2022/07/06 09:17:50;;;;;;;0.40;0.30;;;;;;;26.33;43.63;101620.13;4921056;29;20054;-79
2022/07/06 09:20:15;;;;;;;3.50;0.30;;;;;;;26.95;41.31;101626.69;4897153;29;20111;-79
2022/07/06 09:23:17;;;;;;;;;;;;;;;;;;;;;
2022/07/06 09:28:59;;;;;;;0.40;0.30;;;;;;;25.66;42.13;101599.59;4916430;29;20094;-81
2022/07/06 09:32:19;;;;;;;1.27;0.30;;;;;;;25.47;42.00;101631.66;4939846;29;20024;-78
2022/07/06 09:35:47;;;;;;;1.35;0.20;;;;;;;24.50;44.34;101606.00;4829447;29;20053;-79
2022/07/06 09:38:59;;;;;;;;;;;;;;;;;;;;;
2022/07/06 09:42:06;;;;;;;;;;;;;;;;;;;;;
2022/07/06 09:45:09;;;;;;;;;;;;;;;;;;;;;
2022/07/06 09:50:47;;;;;;;0.93;0.20;;;;;;;25.59;42.77;101600.91;4879050;29;20282;-80
2022/07/06 09:53:20;;;;;;;0.40;0.20;;;;;;;26.12;42.43;101581.75;4916141;29;20024;-79
2022/07/06 09:55:58;;;;;;;0.20;0.20;;;;;;;26.29;41.06;101594.75;4912351;29;20039;-79
2022/07/06 09:58:31;;;;;;;0.30;0.30;;;;;;;25.97;41.27;101624.38;4889613;29;20043;-80
2022/07/06 10:00:57;;;;;;;0.30;0.28;;;;;;;25.55;41.52;101628.00;4909635;29;20107;-80
2022/07/06 10:03:27;;;;;;;0.55;0.35;;;;;;;24.89;42.80;101598.47;4898659;29;20123;-82
2022/07/06 10:05:54;;;;;;;0.25;0.20;;;;;;;24.48;44.46;101618.66;4902045;29;20032;-80
2022/07/06 10:08:20;;;;;;;0.70;0.40;;;;;;;23.88;45.22;101601.63;4909664;29;20031;-80
2022/07/06 10:10:46;;;;;;;0.20;0.20;;;;;;;23.84;46.12;101622.94;4908810;29;20399;-80
2022/07/06 10:19:59;;;;;;;;;;;;;;;;;;;;;
2022/07/06 10:22:18;;;;;;;1.88;0.20;;;;;;;24.00;46.93;101626.13;4909479;29;20115;-80
2022/07/06 10:24:47;;;;;;;1.48;0.40;;;;;;;23.55;47.30;101618.81;4907443;29;20035;-81
2022/07/06 10:27:14;;;;;;;2.13;0.43;;;;;;;23.20;48.17;101609.53;4906912;29;20020;-80
2022/07/06 10:29:40;;;;;;;0.43;0.30;;;;;;;23.22;48.45;101610.03;4922096;29;20079;-80
2022/07/06 10:32:07;;;;;;;0.43;0.30;;;;;;;23.96;47.15;101597.19;4874092;29;20047;-79
2022/07/06 10:34:36;;;;;;;0.50;0.50;;;;;;;25.31;44.82;101597.00;4907293;29;20146;-81
2022/07/06 10:37:02;;;;;;;2.92;0.70;;;;;;;25.79;43.18;101606.88;4891743;29;20028;-80
2022/07/06 10:43:06;;;;;;;0.30;0.30;;;;;;;26.78;42.20;101587.63;4920556;29;20034;-80
2022/07/06 10:45:32;;;;;;;0.75;0.43;;;;;;;27.14;40.64;101605.66;4922181;29;20459;-81
2022/07/06 10:48:23;;;;;;;;;;;;;;;;;;;;;
2022/07/06 10:51:04;;;;;;;;;;;;;;;;;;;;;
2022/07/06 10:53:37;;;;;;;0.63;0.55;;;;;;;26.70;40.89;101602.59;4923195;29;20111;-78
2022/07/06 10:56:13;;;;;;;2.03;0.47;;;;;;;25.92;42.37;101588.97;4900843;29;20036;-81
2022/07/06 10:59:10;;;;;;;1.35;0.60;;;;;;;25.64;43.63;101596.28;4906819;29;20032;-80
2022/07/06 11:11:54;;;;;;;;;;;;;;;;;;;;;
2022/07/06 11:14:40;;;;;;;4.78;1.00;;;;;;;25.51;45.21;101613.03;4891465;29;20096;-78
2022/07/06 11:17:23;;;;;;;2.67;0.90;;;;;;;26.04;44.40;101581.81;4898161;29;20474;-80
2022/07/06 11:20:38;;;;;;;2.65;1.10;;;;;;;26.50;43.47;101598.66;4906864;29;20071;-77
2022/07/06 11:23:06;;;;;;;;;;;;;;;25.99;43.74;101607.22;4924780;29;20039;-79
2022/07/06 11:25:34;;;;;;;1.75;0.73;;;;;;;25.56;43.05;101607.22;4929740;29;20370;-78
2022/07/06 11:28:03;;;;;;;1.65;0.55;;;;;;;25.20;42.77;101583.38;4907684;29;20160;-78
2022/07/06 11:38:05;;;;;;;0.80;0.40;;;;;;;29.15;35.45;101581.66;4827266;29;20045;-77
2022/07/06 11:48:03;;;;;;;;;;;;;;;;;;;;;
2022/07/06 11:50:57;;;;;;;2.08;0.40;;;;;;;32.66;28.67;101589.94;4869219;29;20109;-78
2022/07/06 11:53:53;;;;;;;;;;;;;;;;;;;;;
2022/07/06 11:56:59;;;;;;;5.57;0.50;;;;;;;32.76;30.43;101582.78;4877791;29;20117;-80
2022/07/06 11:59:34;;;;;;;0.40;0.40;;;;;;;33.14;28.69;101589.94;4848688;29;20039;-75
2022/07/06 12:02:11;;;;;;;;;;;;;;;;;;;;;
2022/07/06 12:04:54;;;;;;;;;;;;;;;;;;;;;
2022/07/06 12:44:13;;;;;;;3.65;0.95;;;;;;;25.64;42.61;101526.28;4949862;28;20062;-82
2022/07/06 12:46:48;;;;;;;1.33;0.88;;;;;;;27.87;39.03;101548.53;4911909;29;20550;-81
2022/07/06 12:49:26;;;;;;;9.73;0.70;;;;;;;33.34;29.36;101535.84;4906085;29;20123;-79
2022/07/06 12:51:59;;;;;;;1.88;0.60;;;;;;;36.99;24.72;101563.19;4905372;29;20028;-78
2022/07/06 12:54:35;;;;;;;0.52;0.50;;;;;;;37.26;23.85;101547.47;4897954;29;20030;-80
2022/07/06 12:57:19;;;;;;;;;;;;;;;;;;;;;
2022/07/06 13:00:05;;;;;;;;;;;;;;;31.51;29.89;101563.94;4922770;29;20539;-81
2022/07/06 13:02:39;;;;;;;2.08;0.65;;;;;;;29.94;33.39;101553.22;4915179;29;20303;-83
2022/07/06 13:05:07;;;;;;;;;;;;;;;29.36;34.38;101558.81;4894298;29;20032;-84
2022/07/06 13:07:44;;;;;;;0.57;0.50;;;;;;;28.57;35.89;101529.53;4889292;29;19918;-80
2022/07/06 13:10:11;;;;;;;0.85;0.65;;;;;;;32.42;31.05;101541.22;4906780;29;20031;-79
2022/07/06 13:12:42;;;;;;;2.45;0.43;;;;;;;33.82;27.44;101549.84;4903984;29;20027;-81
2022/07/06 13:15:12;;;;;;;0.95;0.60;;;;;;;32.99;28.46;101559.91;4912736;29;20020;-79